Time;durP1;ratioP1;P1;durP2;ratioP2;P2;SDS_P1;SDS_P2;PMS_P1;PMS_P2;Temp;Humidity;BMP_temperature;BMP_pressure;BME280_temperature;BME280_humidity;BME280_pressure;Samples;Min_cycle;Max_cycle;Signal;HPM_P1;HPM_P2
2022/11/21 00:00:16;;;;;;;0.35;0.20;;;1.80;99.90;;;;;;5074316;28;20052;-79
2022/11/21 00:02:42;;;;;;;0.55;0.55;;;1.80;99.90;;;;;;5075661;28;20603;-79
2022/11/21 00:05:08;;;;;;;0.00;0.00;;;1.70;99.90;;;;;;5076207;28;20059;-79
2022/11/21 00:07:35;;;;;;;0.75;0.75;;;1.80;99.90;;;;;;5092667;28;20044;-79
2022/11/21 00:10:00;;;;;;;0.98;0.22;;;1.80;99.90;;;;;;5093072;28;20048;-79
2022/11/21 00:12:26;;;;;;;0.28;0.28;;;1.70;99.90;;;;;;5093364;28;20127;-79
2022/11/21 00:14:52;;;;;;;2.90;0.65;;;1.70;99.90;;;;;;5093378;28;20079;-79
2022/11/21 00:17:18;;;;;;;1.17;0.00;;;1.80;99.90;;;;;;5076066;28;20040;-79
2022/11/21 00:19:43;;;;;;;0.25;0.10;;;1.80;99.90;;;;;;5093184;28;20505;-79
2022/11/21 00:22:09;;;;;;;0.08;0.08;;;1.80;99.90;;;;;;5076320;28;20131;-79
2022/11/21 00:24:35;;;;;;;2.20;0.88;;;1.70;99.90;;;;;;5093078;28;20047;-79
2022/11/21 00:27:00;;;;;;;0.10;0.10;;;1.70;99.90;;;;;;5093138;28;20077;-79
2022/11/21 00:29:27;;;;;;;0.52;0.52;;;1.70;99.90;;;;;;5076049;28;20108;-79
2022/11/21 00:31:52;;;;;;;0.30;0.20;;;1.70;99.90;;;;;;5093578;28;20044;-79
2022/11/21 00:34:18;;;;;;;0.00;0.00;;;1.70;99.90;;;;;;5076126;28;20503;-78
2022/11/21 00:36:44;;;;;;;0.10;0.10;;;1.70;99.90;;;;;;5092813;28;20075;-78
2022/11/21 00:39:09;;;;;;;0.00;0.00;;;1.80;99.90;;;;;;5076136;28;20082;-78
2022/11/21 00:41:35;;;;;;;2.55;0.43;;;1.80;99.90;;;;;;5093042;28;20476;-79
2022/11/21 00:44:00;;;;;;;0.00;0.00;;;1.80;99.90;;;;;;5092977;28;20088;-79
2022/11/21 00:46:26;;;;;;;0.65;0.40;;;1.80;99.90;;;;;;5095156;28;20048;-79
2022/11/21 00:48:52;;;;;;;2.53;0.55;;;1.80;99.90;;;;;;5079746;28;20418;-79
2022/11/21 00:51:17;;;;;;;0.32;0.32;;;1.80;99.90;;;;;;5080477;28;20047;-79
2022/11/21 00:53:43;;;;;;;0.05;0.03;;;1.80;99.90;;;;;;5079627;28;20097;-79
2022/11/21 00:56:09;;;;;;;0.00;0.00;;;1.80;99.90;;;;;;5079053;28;20099;-79
2022/11/21 00:58:34;;;;;;;1.05;1.05;;;1.80;99.90;;;;;;5079512;28;20097;-78
2022/11/21 01:01:09;;;;;;;0.03;0.03;;;1.80;99.90;;;;;;5079477;28;20395;-78
2022/11/21 01:03:35;;;;;;;2.53;0.30;;;1.70;99.90;;;;;;5079240;28;20048;-78
2022/11/21 01:06:09;;;;;;;0.00;0.00;;;1.70;99.90;;;;;;5079883;28;20044;-80
2022/11/21 01:08:37;;;;;;;0.17;0.17;;;1.60;99.90;;;;;;5095396;28;20484;-80
2022/11/21 01:11:07;;;;;;;0.03;0.03;;;1.60;99.90;;;;;;5096878;28;20392;-79
2022/11/21 01:13:34;;;;;;;0.55;0.20;;;1.60;99.90;;;;;;5079894;28;20044;-79
2022/11/21 01:16:08;;;;;;;0.10;0.10;;;1.60;99.90;;;;;;5079216;28;20052;-80
2022/11/21 01:18:35;;;;;;;0.10;0.00;;;1.60;99.90;;;;;;5078628;28;20044;-80
2022/11/21 01:21:10;;;;;;;4.32;1.45;;;1.60;99.90;;;;;;5096050;28;20181;-80
2022/11/21 01:23:36;;;;;;;0.30;0.30;;;1.70;99.90;;;;;;5096201;28;20067;-80
2022/11/21 01:26:04;;;;;;;0.40;0.40;;;1.70;99.90;;;;;;5079183;28;20039;-80
2022/11/21 01:28:30;;;;;;;0.38;0.20;;;1.70;99.90;;;;;;5096328;28;20044;-80
2022/11/21 01:31:06;;;;;;;0.20;0.20;;;1.60;99.90;;;;;;5095899;28;20047;-80
2022/11/21 01:33:32;;;;;;;0.30;0.30;;;1.60;99.90;;;;;;5079776;28;20345;-80
2022/11/21 01:36:15;;;;;;;1.23;0.20;;;1.60;99.90;;;;;;5095957;28;20097;-80
2022/11/21 01:38:43;;;;;;;0.40;0.40;;;1.60;99.90;;;;;;5078685;28;20213;-80
2022/11/21 01:41:10;;;;;;;0.57;0.57;;;1.70;99.90;;;;;;5095734;28;20127;-80
2022/11/21 01:43:36;;;;;;;1.45;0.60;;;1.70;99.90;;;;;;5095680;28;20047;-80
2022/11/21 01:46:08;;;;;;;0.00;0.00;;;1.70;99.90;;;;;;5095703;28;20105;-80
2022/11/21 01:48:37;;;;;;;3.03;0.28;;;1.70;99.90;;;;;;5079366;28;20052;-80
2022/11/21 01:51:12;;;;;;;0.40;0.20;;;1.80;99.90;;;;;;5095739;28;20128;-80
2022/11/21 01:53:40;;;;;;;3.50;0.13;;;1.70;99.90;;;;;;5079031;28;20143;-80
2022/11/21 01:56:07;;;;;;;1.23;0.40;;;1.70;99.90;;;;;;5078502;28;20101;-80
2022/11/21 01:58:33;;;;;;;0.20;0.20;;;1.70;99.90;;;;;;5078000;28;20090;-80
2022/11/21 02:01:00;;;;;;;0.00;0.00;;;1.80;99.90;;;;;;5095570;28;20489;-80
2022/11/21 02:03:30;;;;;;;0.17;0.17;;;1.80;99.90;;;;;;5095250;28;20044;-80
2022/11/21 02:05:57;;;;;;;0.35;0.28;;;1.80;99.90;;;;;;5078450;28;20067;-80
2022/11/21 02:08:26;;;;;;;1.65;0.43;;;1.80;99.90;;;;;;5094705;28;20107;-80
2022/11/21 02:11:12;;;;;;;0.43;0.30;;;1.80;99.90;;;;;;5078206;28;20052;-80
2022/11/21 02:13:38;;;;;;;0.05;0.05;;;1.80;99.90;;;;;;5078850;28;20135;-80
2022/11/21 02:16:04;;;;;;;0.30;0.30;;;1.80;99.90;;;;;;5078392;28;20087;-80
2022/11/21 02:18:30;;;;;;;0.32;0.32;;;1.80;99.90;;;;;;5094629;28;20123;-80
2022/11/21 02:21:16;;;;;;;0.00;0.00;;;1.70;99.90;;;;;;5094903;28;20075;-80
2022/11/21 02:24:07;;;;;;;0.10;0.10;;;1.80;99.90;;;;;;5077961;28;20059;-80
2022/11/21 02:26:34;;;;;;;0.00;0.00;;;1.80;99.90;;;;;;5094769;28;20066;-80
2022/11/21 02:29:00;;;;;;;0.17;0.17;;;1.80;99.90;;;;;;5094644;28;20044;-80
2022/11/21 02:31:25;;;;;;;0.10;0.05;;;1.80;99.90;;;;;;5077628;28;20503;-80
2022/11/21 02:33:51;;;;;;;0.20;0.20;;;1.80;99.90;;;;;;5077436;28;20087;-80
2022/11/21 02:36:30;;;;;;;0.13;0.10;;;1.80;99.90;;;;;;5078091;28;20105;-80
2022/11/21 02:38:56;;;;;;;0.98;0.52;;;1.80;99.90;;;;;;5094909;28;20098;-80
2022/11/21 02:41:25;;;;;;;0.77;0.77;;;1.80;99.90;;;;;;5078187;28;20047;-80
2022/11/21 02:44:01;;;;;;;0.10;0.10;;;1.80;99.90;;;;;;5094703;28;20051;-80
2022/11/21 02:46:27;;;;;;;2.80;0.30;;;1.80;99.90;;;;;;5077544;28;20052;-80
2022/11/21 02:48:56;;;;;;;0.47;0.47;;;1.80;99.90;;;;;;5077591;28;20403;-80
2022/11/21 02:51:21;;;;;;;0.77;0.55;;;1.80;99.90;;;;;;5077338;28;20146;-80
2022/11/21 02:53:47;;;;;;;3.38;0.43;;;1.80;99.90;;;;;;5077522;28;20090;-80
2022/11/21 02:56:12;;;;;;;0.32;0.00;;;1.80;99.90;;;;;;5094591;28;20177;-80
2022/11/21 02:58:38;;;;;;;0.05;0.00;;;1.80;99.90;;;;;;5096450;28;20120;-80
2022/11/21 03:01:04;;;;;;;0.80;0.47;;;1.90;99.90;;;;;;5097674;28;20435;-80
2022/11/21 03:03:29;;;;;;;0.22;0.22;;;1.90;99.90;;;;;;5114958;28;20583;-80
2022/11/21 03:05:55;;;;;;;0.20;0.20;;;1.90;99.90;;;;;;5115162;28;20416;-80
2022/11/21 03:08:21;;;;;;;0.30;0.30;;;1.90;99.90;;;;;;5113870;28;20105;-80
2022/11/21 03:10:47;;;;;;;0.17;0.17;;;1.90;99.90;;;;;;5114584;28;20047;-80
2022/11/21 03:13:12;;;;;;;0.43;0.20;;;1.80;99.90;;;;;;5097449;28;20051;-80
2022/11/21 03:15:38;;;;;;;2.75;0.85;;;1.80;99.90;;;;;;5114372;28;20046;-80
2022/11/21 03:18:04;;;;;;;0.50;0.13;;;1.80;99.90;;;;;;5097271;28;20079;-80
2022/11/21 03:20:31;;;;;;;2.25;0.22;;;1.70;99.90;;;;;;5114373;28;20039;-80
2022/11/21 03:22:56;;;;;;;0.55;0.45;;;1.70;99.90;;;;;;5114368;28;20039;-80
2022/11/21 03:25:22;;;;;;;3.38;0.80;;;1.70;99.90;;;;;;5097145;28;20088;-80
2022/11/21 03:27:52;;;;;;;0.00;0.00;;;1.70;99.90;;;;;;5114022;28;20548;-80
2022/11/21 03:30:19;;;;;;;2.17;0.38;;;1.60;99.90;;;;;;5114062;28;20036;-80
2022/11/21 03:32:44;;;;;;;0.98;0.47;;;1.50;99.90;;;;;;5114214;28;20091;-80
2022/11/21 03:35:10;;;;;;;0.38;0.38;;;1.50;99.90;;;;;;5114542;28;20040;-80
2022/11/21 03:37:36;;;;;;;0.43;0.25;;;1.50;99.90;;;;;;5096549;28;20105;-80
2022/11/21 03:40:02;;;;;;;0.77;0.77;;;1.50;99.90;;;;;;5113699;28;20040;-80
2022/11/21 03:42:27;;;;;;;2.63;0.15;;;1.40;99.90;;;;;;5097248;28;20134;-80
2022/11/21 03:44:53;;;;;;;0.13;0.13;;;1.40;99.90;;;;;;5113902;28;20039;-80
2022/11/21 03:47:18;;;;;;;0.15;0.15;;;1.40;99.90;;;;;;5113722;28;20082;-80
2022/11/21 03:49:44;;;;;;;0.20;0.20;;;1.50;99.90;;;;;;5113641;28;20391;-80
2022/11/21 03:52:09;;;;;;;0.00;0.00;;;1.50;99.90;;;;;;5096465;28;20058;-80
2022/11/21 03:54:35;;;;;;;0.25;0.20;;;1.50;99.90;;;;;;5113491;28;20046;-80
2022/11/21 03:57:01;;;;;;;0.20;0.20;;;1.50;99.90;;;;;;5096598;28;20036;-80
2022/11/21 03:59:26;;;;;;;0.65;0.28;;;1.40;99.90;;;;;;5097081;28;20047;-80
2022/11/21 04:01:52;;;;;;;2.63;0.15;;;1.30;99.90;;;;;;5113729;28;20127;-80
2022/11/21 04:04:17;;;;;;;0.03;0.00;;;1.30;99.90;;;;;;5113276;28;20043;-80
2022/11/21 04:06:44;;;;;;;0.10;0.10;;;1.20;99.90;;;;;;5096748;28;20050;-80
2022/11/21 04:09:09;;;;;;;0.00;0.00;;;1.20;99.90;;;;;;5099092;28;20047;-80
2022/11/21 04:11:36;;;;;;;0.10;0.10;;;1.20;99.90;;;;;;5099889;28;20393;-80
2022/11/21 04:14:02;;;;;;;0.00;0.00;;;1.10;99.90;;;;;;5116881;28;20051;-79
2022/11/21 04:16:27;;;;;;;0.00;0.00;;;1.00;99.90;;;;;;5117359;28;20092;-80
2022/11/21 04:18:53;;;;;;;1.08;0.20;;;1.00;99.90;;;;;;5116795;28;20111;-80
2022/11/21 04:21:18;;;;;;;0.00;0.00;;;1.00;99.90;;;;;;5120393;27;20042;-80
2022/11/21 04:23:44;;;;;;;2.17;1.20;;;1.00;99.90;;;;;;5120953;27;20043;-80
2022/11/21 04:26:10;;;;;;;0.10;0.10;;;1.00;99.90;;;;;;5104262;27;20054;-80
2022/11/21 04:28:35;;;;;;;2.65;0.80;;;1.00;99.90;;;;;;5120783;27;20055;-80
2022/11/21 04:31:05;;;;;;;0.40;0.40;;;0.90;99.90;;;;;;5121089;27;20050;-80
2022/11/21 04:33:32;;;;;;;0.10;0.10;;;0.80;99.90;;;;;;5104263;27;20082;-80
2022/11/21 04:35:58;;;;;;;0.43;0.43;;;0.80;99.90;;;;;;5103776;27;20096;-80
2022/11/21 04:38:23;;;;;;;0.00;0.00;;;0.80;99.90;;;;;;5103458;27;20071;-80
2022/11/21 04:40:49;;;;;;;0.88;0.40;;;0.70;99.90;;;;;;5120732;27;20047;-80
2022/11/21 04:43:15;;;;;;;0.20;0.20;;;0.70;99.90;;;;;;5103572;27;20477;-80
2022/11/21 04:45:40;;;;;;;0.25;0.25;;;0.60;99.90;;;;;;5103724;27;20126;-80
2022/11/21 04:48:06;;;;;;;0.30;0.30;;;0.60;99.90;;;;;;5120714;27;20043;-80
2022/11/21 04:50:32;;;;;;;0.43;0.43;;;0.60;99.90;;;;;;5120502;27;20091;-80
2022/11/21 04:52:57;;;;;;;0.20;0.10;;;0.60;99.90;;;;;;5120777;27;20036;-80
2022/11/21 04:55:28;;;;;;;0.20;0.20;;;0.60;99.90;;;;;;5120880;27;20039;-80
2022/11/21 04:57:53;;;;;;;0.82;0.80;;;0.70;99.90;;;;;;5103331;27;20062;-80
2022/11/21 05:00:20;;;;;;;0.25;0.25;;;0.60;99.90;;;;;;5120201;27;20465;-80
2022/11/21 05:02:46;;;;;;;0.10;0.10;;;0.50;99.90;;;;;;5102976;27;20047;-80
2022/11/21 05:05:12;;;;;;;0.30;0.30;;;0.50;99.90;;;;;;5120121;27;20409;-80
2022/11/21 05:07:39;;;;;;;0.88;0.63;;;0.40;99.90;;;;;;5103040;27;20047;-80
2022/11/21 05:10:06;;;;;;;5.38;0.30;;;0.50;99.90;;;;;;5120452;27;20043;-80
2022/11/21 05:15:16;;;;;;;0.30;0.30;;;0.50;99.90;;;;;;5120377;27;20555;-80
2022/11/21 05:17:42;;;;;;;0.75;0.65;;;0.40;99.90;;;;;;5119835;27;20072;-80
2022/11/21 05:20:08;;;;;;;0.60;0.60;;;0.40;99.90;;;;;;5103426;27;20050;-80
2022/11/21 05:22:34;;;;;;;0.00;0.00;;;0.40;99.90;;;;;;5119649;27;20126;-80
2022/11/21 05:24:59;;;;;;;0.10;0.10;;;0.40;99.90;;;;;;5102956;27;20112;-80
2022/11/21 05:27:25;;;;;;;0.10;0.10;;;0.40;99.90;;;;;;5103198;27;20039;-80
2022/11/21 05:29:50;;;;;;;0.00;0.00;;;0.30;99.90;;;;;;5119915;27;20050;-80
2022/11/21 05:32:16;;;;;;;0.50;0.47;;;0.30;99.90;;;;;;5119434;27;20076;-80
2022/11/21 05:34:42;;;;;;;0.00;0.00;;;0.20;99.90;;;;;;5102820;27;20107;-80
2022/11/21 05:37:07;;;;;;;0.00;0.00;;;0.20;99.90;;;;;;5119651;27;20050;-80
2022/11/21 05:39:33;;;;;;;0.20;0.20;;;0.20;99.90;;;;;;5119603;27;20428;-81
2022/11/21 05:41:59;;;;;;;0.00;0.00;;;0.30;99.90;;;;;;5119688;27;20039;-80
2022/11/21 05:44:24;;;;;;;0.10;0.10;;;0.20;99.90;;;;;;5119543;27;20047;-80
2022/11/21 05:46:50;;;;;;;0.73;0.47;;;0.20;99.90;;;;;;5103118;27;20088;-80
2022/11/21 05:49:15;;;;;;;0.20;0.20;;;0.20;99.90;;;;;;5119821;27;20501;-80
2022/11/21 05:51:41;;;;;;;0.00;0.00;;;0.20;99.90;;;;;;5102771;27;20047;-80
2022/11/21 05:54:06;;;;;;;0.10;0.00;;;0.20;99.90;;;;;;5102121;27;20047;-80
2022/11/21 05:56:32;;;;;;;0.30;0.30;;;0.20;99.90;;;;;;5102214;27;20055;-80
2022/11/21 05:58:58;;;;;;;0.00;0.00;;;0.30;99.90;;;;;;5102490;27;20054;-80
2022/11/21 06:04:09;;;;;;;3.20;0.75;;;0.30;99.90;;;;;;5119407;27;20057;-80
2022/11/21 06:06:36;;;;;;;0.88;0.88;;;0.30;99.90;;;;;;5118987;27;20092;-80
2022/11/21 06:09:03;;;;;;;1.65;0.95;;;0.30;99.90;;;;;;5098265;28;20051;-80
2022/11/21 06:11:28;;;;;;;1.52;0.25;;;0.30;99.90;;;;;;5115419;28;20087;-80
2022/11/21 06:13:54;;;;;;;0.63;0.40;;;0.30;99.90;;;;;;5115399;28;20101;-80
2022/11/21 06:16:20;;;;;;;0.00;0.00;;;0.30;99.90;;;;;;5115087;28;20129;-80
2022/11/21 06:18:48;;;;;;;1.77;0.88;;;0.40;99.90;;;;;;5097947;28;20036;-80
2022/11/21 06:21:22;;;;;;;0.28;0.28;;;0.30;99.90;;;;;;5098092;28;20064;-80
2022/11/21 06:23:53;;;;;;;0.00;0.00;;;0.30;99.90;;;;;;5115550;28;20127;-80
2022/11/21 06:26:21;;;;;;;0.15;0.08;;;0.30;99.90;;;;;;5098202;28;20101;-81
2022/11/21 06:28:47;;;;;;;0.68;0.52;;;0.30;99.90;;;;;;5098698;28;20046;-80
2022/11/21 06:31:16;;;;;;;7.63;1.10;;;0.20;99.90;;;;;;5115541;28;20448;-81
2022/11/21 06:33:42;;;;;;;0.55;0.55;;;0.20;99.90;;;;;;5115308;28;20097;-81
2022/11/21 06:36:13;;;;;;;0.70;0.70;;;0.20;99.90;;;;;;5098226;28;20047;-81
2022/11/21 06:38:39;;;;;;;1.15;0.10;;;0.20;99.90;;;;;;5098289;28;20039;-81
2022/11/21 06:41:06;;;;;;;0.35;0.35;;;0.10;99.90;;;;;;5115203;28;20040;-81
2022/11/21 06:43:31;;;;;;;0.20;0.20;;;0.10;99.90;;;;;;5114411;28;20080;-81
2022/11/21 06:45:57;;;;;;;1.45;1.00;;;0.10;99.90;;;;;;5115155;28;20043;-80
2022/11/21 06:48:24;;;;;;;0.13;0.13;;;0.10;99.90;;;;;;5114639;28;20063;-79
2022/11/21 06:50:50;;;;;;;0.90;0.43;;;0.00;99.90;;;;;;5097728;28;20055;-80
2022/11/21 06:53:15;;;;;;;1.35;0.13;;;0.00;99.90;;;;;;5114759;28;20044;-80
2022/11/21 06:55:41;;;;;;;0.00;0.00;;;-0.10;99.90;;;;;;5114905;28;20048;-80
2022/11/21 06:58:07;;;;;;;3.70;0.98;;;-0.10;99.90;;;;;;5097446;28;20047;-80
2022/11/21 07:00:32;;;;;;;3.92;0.55;;;-0.20;99.90;;;;;;5097549;28;20181;-79
2022/11/21 07:03:02;;;;;;;0.10;0.10;;;-0.20;99.90;;;;;;5097680;28;20122;-79
2022/11/21 07:05:28;;;;;;;0.00;0.00;;;-0.10;99.90;;;;;;5114731;28;20093;-79
2022/11/21 07:07:58;;;;;;;0.22;0.22;;;-0.10;99.90;;;;;;5095188;28;20055;-80
2022/11/21 07:10:24;;;;;;;0.98;0.50;;;-0.10;99.90;;;;;;5097108;28;20055;-77
2022/11/21 07:15:34;;;;;;;0.10;0.10;;;0.00;99.90;;;;;;5114511;28;20059;-80
2022/11/21 07:18:00;;;;;;;1.80;0.73;;;0.10;99.90;;;;;;5097316;28;20168;-80
2022/11/21 07:20:26;;;;;;;0.13;0.13;;;0.10;99.90;;;;;;5114309;28;20079;-78
2022/11/21 07:22:55;;;;;;;0.50;0.50;;;0.10;99.90;;;;;;5114091;28;20049;-78
2022/11/21 07:25:21;;;;;;;1.20;1.20;;;0.20;99.90;;;;;;5097005;28;20065;-78
2022/11/21 07:27:47;;;;;;;0.20;0.20;;;0.30;99.90;;;;;;5113788;28;20104;-79
2022/11/21 07:30:13;;;;;;;0.15;0.15;;;0.20;99.90;;;;;;5113989;28;20048;-78
2022/11/21 07:32:39;;;;;;;0.45;0.45;;;0.30;99.90;;;;;;5113953;28;20071;-79
2022/11/21 07:35:06;;;;;;;1.00;0.35;;;0.30;99.90;;;;;;5113862;28;20447;-79
2022/11/21 07:37:31;;;;;;;0.30;0.30;;;0.30;99.90;;;;;;5113528;28;20043;-79
2022/11/21 07:39:57;;;;;;;0.10;0.10;;;0.40;99.90;;;;;;5096679;28;20151;-79
2022/11/21 07:42:23;;;;;;;0.10;0.10;;;0.40;99.90;;;;;;5113754;28;20039;-80
2022/11/21 07:44:49;;;;;;;0.00;0.00;;;0.40;99.90;;;;;;5096789;28;20056;-79
2022/11/21 07:47:14;;;;;;;2.00;0.55;;;0.40;99.90;;;;;;5096799;28;20488;-79
2022/11/21 07:49:40;;;;;;;0.00;0.00;;;0.40;99.90;;;;;;5097660;28;20050;-79
2022/11/21 07:52:05;;;;;;;0.80;0.52;;;0.50;99.90;;;;;;5113574;28;20039;-79
2022/11/21 07:54:31;;;;;;;0.03;0.03;;;0.50;99.90;;;;;;5112899;28;20098;-79
2022/11/21 07:56:57;;;;;;;0.45;0.43;;;0.60;99.90;;;;;;5113254;28;20476;-79
2022/11/21 07:59:22;;;;;;;2.28;0.47;;;0.60;99.90;;;;;;5113386;28;20180;-79
2022/11/21 08:01:50;;;;;;;0.20;0.20;;;0.60;99.90;;;;;;5114021;28;20039;-79
2022/11/21 08:04:15;;;;;;;0.30;0.30;;;0.70;99.90;;;;;;5109611;28;20062;-79
2022/11/21 08:06:41;;;;;;;1.85;1.02;;;0.80;99.90;;;;;;5075823;28;20078;-80
2022/11/21 08:09:07;;;;;;;1.25;0.47;;;1.10;99.90;;;;;;5092414;28;20055;-79
2022/11/21 08:11:35;;;;;;;0.10;0.10;;;1.20;99.90;;;;;;5092981;28;20052;-79
2022/11/21 08:14:01;;;;;;;0.95;0.50;;;1.60;99.90;;;;;;5093847;28;20513;-79
2022/11/21 08:16:28;;;;;;;1.42;0.90;;;2.00;99.90;;;;;;5093368;28;20071;-80
2022/11/21 08:18:54;;;;;;;0.10;0.10;;;2.30;99.90;;;;;;5092825;28;20052;-79
2022/11/21 08:21:19;;;;;;;0.20;0.20;;;2.50;99.90;;;;;;5093318;28;20447;-79
2022/11/21 08:23:45;;;;;;;0.77;0.75;;;2.70;99.90;;;;;;5093192;28;20040;-79
2022/11/21 08:26:10;;;;;;;0.30;0.25;;;2.90;99.90;;;;;;5076229;28;20519;-79
2022/11/21 08:28:36;;;;;;;0.38;0.38;;;3.40;99.90;;;;;;5093460;28;20083;-79
2022/11/21 08:31:05;;;;;;;0.10;0.08;;;3.90;99.90;;;;;;5076228;28;20396;-79
2022/11/21 08:33:31;;;;;;;0.80;0.70;;;4.40;99.90;;;;;;5093496;28;20411;-79
2022/11/21 08:35:57;;;;;;;0.40;0.40;;;4.40;99.90;;;;;;5076044;28;20048;-79
2022/11/21 08:38:23;;;;;;;0.45;0.30;;;4.20;99.90;;;;;;5074318;28;20063;-79
2022/11/21 08:42:01;;;;;;;1.10;0.77;;;3.90;99.90;;;;;;5055568;28;20074;-80
2022/11/21 08:43:37;;;;;;;0.15;0.15;;;3.50;99.90;;;;;;5072368;28;20052;-81
2022/11/21 08:46:03;;;;;;;0.38;0.38;;;3.10;99.90;;;;;;5055977;28;20480;-79
2022/11/21 08:48:28;;;;;;;0.28;0.28;;;2.70;99.90;;;;;;5055962;28;20040;-79
2022/11/21 08:50:56;;;;;;;0.90;0.43;;;2.40;99.90;;;;;;5055624;28;20106;-79
2022/11/21 08:53:22;;;;;;;0.30;0.30;;;2.20;99.90;;;;;;5055518;28;20067;-80
2022/11/21 08:55:47;;;;;;;0.15;0.10;;;2.00;99.90;;;;;;5055978;28;20131;-80
2022/11/21 08:58:13;;;;;;;0.22;0.22;;;1.90;99.90;;;;;;5072432;28;20036;-80
2022/11/21 09:00:39;;;;;;;0.05;0.05;;;1.80;99.90;;;;;;5072494;28;20045;-79
2022/11/21 09:03:05;;;;;;;0.17;0.17;;;1.70;99.90;;;;;;5072735;28;20044;-81
2022/11/21 09:05:31;;;;;;;0.10;0.10;;;1.70;99.90;;;;;;5055955;28;20049;-79
2022/11/21 09:07:57;;;;;;;0.20;0.20;;;1.70;99.90;;;;;;5090707;28;20052;-79
2022/11/21 09:10:25;;;;;;;0.40;0.40;;;1.70;99.90;;;;;;5116845;28;20044;-79
2022/11/21 09:12:51;;;;;;;0.00;0.00;;;1.60;99.90;;;;;;5099471;28;20062;-79
2022/11/21 09:18:02;;;;;;;1.27;0.30;;;1.60;99.90;;;;;;5116625;28;20052;-79
2022/11/21 09:20:27;;;;;;;0.25;0.25;;;1.60;99.90;;;;;;5099453;28;20054;-79
2022/11/21 09:22:53;;;;;;;2.05;1.13;;;1.60;99.90;;;;;;5097987;28;20403;-80
2022/11/21 09:25:19;;;;;;;0.00;0.00;;;1.60;99.90;;;;;;5077836;28;20056;-81
2022/11/21 09:27:44;;;;;;;0.03;0.03;;;1.60;99.90;;;;;;5076707;28;20620;-80
2022/11/21 09:30:11;;;;;;;0.80;0.65;;;1.60;99.90;;;;;;5078379;28;20044;-80
2022/11/21 09:32:36;;;;;;;0.28;0.28;;;1.60;99.90;;;;;;5095677;28;20134;-80
2022/11/21 09:35:02;;;;;;;0.00;0.00;;;1.60;99.90;;;;;;5079242;28;20486;-79
2022/11/21 09:37:28;;;;;;;0.08;0.05;;;1.60;99.90;;;;;;5078986;28;20102;-79
2022/11/21 09:39:53;;;;;;;0.45;0.17;;;1.60;99.90;;;;;;5095909;28;20391;-79
2022/11/21 09:43:06;;;;;;;0.15;0.15;;;1.60;99.90;;;;;;5078860;28;20561;-80
2022/11/21 09:45:49;;;;;;;0.75;0.35;;;1.70;99.90;;;;;;5078490;28;20515;-81
2022/11/21 09:48:25;;;;;;;0.32;0.10;;;1.70;99.90;;;;;;5078756;28;20044;-80
2022/11/21 09:50:56;;;;;;;0.17;0.17;;;1.70;99.90;;;;;;5078836;28;20058;-80
2022/11/21 09:53:27;;;;;;;0.57;0.35;;;1.70;99.90;;;;;;5078720;28;20059;-80
2022/11/21 09:56:06;;;;;;;2.08;0.80;;;1.80;99.90;;;;;;5095331;28;20080;-80
2022/11/21 09:59:10;;;;;;;0.40;0.35;;;2.00;99.90;;;;;;5077947;28;20063;-80
2022/11/21 10:01:36;;;;;;;0.20;0.20;;;1.80;99.90;;;;;;5057619;28;20406;-80
2022/11/21 10:04:02;;;;;;;1.55;0.30;;;1.80;99.90;;;;;;5057514;28;20083;-80
2022/11/21 10:06:31;;;;;;;8.25;0.98;;;1.60;99.90;;;;;;5057477;28;20058;-80
2022/11/21 10:09:13;;;;;;;0.10;0.10;;;1.70;99.90;;;;;;5057115;28;20061;-80
2022/11/21 10:14:57;;;;;;;0.68;0.68;;;1.70;99.90;;;;;;5057059;28;20055;-80
2022/11/21 10:17:49;;;;;;;0.00;0.00;;;1.80;99.90;;;;;;5040124;28;20055;-80
2022/11/21 10:20:33;;;;;;;1.08;0.63;;;1.70;99.90;;;;;;5057240;28;20040;-80
2022/11/21 10:23:22;;;;;;;0.00;0.00;;;1.80;99.90;;;;;;5020881;28;20060;-79
2022/11/21 10:25:56;;;;;;;0.00;0.00;;;1.90;99.90;;;;;;5036833;28;20061;-79
2022/11/21 10:28:33;;;;;;;0.10;0.10;;;2.00;99.90;;;;;;5036618;28;20563;-80
2022/11/21 10:31:01;;;;;;;1.13;0.80;;;2.00;99.90;;;;;;5019701;28;20057;-79
2022/11/21 10:33:32;;;;;;;0.40;0.30;;;2.00;99.90;;;;;;5036065;28;20455;-78
2022/11/21 10:36:19;;;;;;;1.20;0.73;;;2.10;99.90;;;;;;5036597;28;20077;-79
2022/11/21 10:38:48;;;;;;;0.52;0.47;;;2.10;99.90;;;;;;5086265;28;20048;-79
2022/11/21 10:41:26;;;;;;;0.43;0.40;;;2.20;99.90;;;;;;5093951;28;20557;-79
2022/11/21 10:46:56;;;;;;;0.85;0.85;;;2.40;99.90;;;;;;5094713;28;20456;-79
2022/11/21 10:49:23;;;;;;;0.47;0.47;;;2.50;99.90;;;;;;5077572;28;20101;-80
2022/11/21 10:52:13;;;;;;;1.05;1.05;;;2.50;99.90;;;;;;5094354;28;20051;-80
2022/11/21 10:55:02;;;;;;;0.05;0.05;;;2.50;99.90;;;;;;5077540;28;20079;-79
2022/11/21 10:57:31;;;;;;;0.38;0.17;;;2.50;99.90;;;;;;5094344;28;20044;-79
2022/11/21 11:00:22;;;;;;;0.13;0.13;;;2.60;99.90;;;;;;5077165;28;20138;-79
2022/11/21 11:03:15;;;;;;;0.73;0.70;;;2.60;99.90;;;;;;5095168;28;20078;-79
2022/11/21 11:05:54;;;;;;;0.95;0.73;;;2.70;99.90;;;;;;5077365;28;20048;-79
2022/11/21 11:08:20;;;;;;;0.73;0.73;;;2.70;99.90;;;;;;5094125;28;20464;-79
2022/11/21 11:11:02;;;;;;;1.48;1.20;;;2.80;99.90;;;;;;5094055;28;20090;-79
2022/11/21 11:13:35;;;;;;;4.53;0.38;;;3.00;99.90;;;;;;5077431;28;20055;-79
2022/11/21 11:16:15;;;;;;;0.75;0.70;;;3.00;99.90;;;;;;5094397;28;20392;-79
2022/11/21 11:18:46;;;;;;;3.08;0.40;;;3.00;99.90;;;;;;5077112;28;20040;-79
2022/11/21 11:21:22;;;;;;;0.47;0.20;;;3.10;99.90;;;;;;5093625;28;20052;-79
2022/11/21 11:23:52;;;;;;;1.08;0.73;;;3.10;99.90;;;;;;5094540;28;20048;-79
2022/11/21 11:26:27;;;;;;;0.88;0.55;;;3.10;99.90;;;;;;5093986;28;20097;-79
2022/11/21 11:29:05;;;;;;;;;;;3.10;99.90;;;;;;5093959;28;20373;-79
2022/11/21 11:31:59;;;;;;;0.30;0.30;;;3.20;99.90;;;;;;5093680;28;19928;-80
2022/11/21 11:34:38;;;;;;;3.58;0.75;;;3.20;99.90;;;;;;5077282;28;20055;-79
2022/11/21 11:37:24;;;;;;;1.50;0.63;;;3.30;99.90;;;;;;5093497;28;20476;-79
2022/11/21 11:39:58;;;;;;;4.90;0.85;;;3.20;99.90;;;;;;5076650;28;20391;-79
2022/11/21 11:48:28;;;;;;;2.22;0.20;;;3.20;99.90;;;;;;5093738;28;20572;-79
2022/11/21 11:51:04;;;;;;;0.30;0.30;;;3.30;99.90;;;;;;5093370;28;20036;-79
2022/11/21 11:53:45;;;;;;;1.95;0.40;;;3.30;99.90;;;;;;5077105;28;20040;-79
2022/11/21 11:56:23;;;;;;;0.20;0.20;;;3.40;99.90;;;;;;5093745;28;20051;-79
2022/11/21 11:59:31;;;;;;;2.97;0.30;;;3.50;99.90;;;;;;5093083;28;20083;-79
2022/11/21 12:02:02;;;;;;;0.00;0.00;;;3.60;99.90;;;;;;5015605;28;20513;-79
2022/11/21 12:04:51;;;;;;;1.00;0.43;;;4.10;99.90;;;;;;5015729;28;20080;-79
2022/11/21 12:07:16;;;;;;;0.43;0.25;;;4.40;99.90;;;;;;4998810;28;20444;-79
2022/11/21 12:09:42;;;;;;;0.47;0.47;;;4.60;99.90;;;;;;4995572;28;20061;-79
2022/11/21 12:12:31;;;;;;;0.65;0.65;;;5.00;99.90;;;;;;4995894;28;20409;-80
2022/11/21 12:18:15;;;;;;;0.15;0.15;;;5.20;99.90;;;;;;5011844;28;20042;-80
2022/11/21 12:21:04;;;;;;;0.98;0.90;;;5.10;99.90;;;;;;4979058;28;20086;-80
2022/11/21 12:23:45;;;;;;;0.57;0.38;;;5.00;99.90;;;;;;4996082;28;20141;-80
2022/11/21 12:26:19;;;;;;;3.08;1.13;;;4.90;99.90;;;;;;4995885;28;20092;-79
2022/11/21 12:28:59;;;;;;;0.20;0.20;;;4.80;99.90;;;;;;4996623;28;20057;-81
2022/11/21 12:31:39;;;;;;;0.52;0.52;;;4.70;99.90;;;;;;4979406;28;20099;-79
2022/11/21 12:34:41;;;;;;;1.08;0.20;;;4.60;99.90;;;;;;4979183;28;20072;-80
2022/11/21 12:37:28;;;;;;;0.68;0.68;;;4.60;99.90;;;;;;5011739;28;20153;-78
2022/11/21 12:40:20;;;;;;;1.10;0.65;;;4.60;99.90;;;;;;5080619;28;20382;-78
2022/11/21 12:43:17;;;;;;;0.55;0.55;;;4.50;99.90;;;;;;5057718;28;20134;-79
2022/11/21 12:45:51;;;;;;;0.30;0.28;;;4.40;99.90;;;;;;5093076;28;20055;-79
2022/11/21 12:54:32;;;;;;;0.40;0.40;;;4.30;99.90;;;;;;5093196;28;20381;-79
2022/11/21 12:57:10;;;;;;;0.00;0.00;;;4.30;99.90;;;;;;5093203;28;20045;-79
2022/11/21 12:59:57;;;;;;;1.65;1.00;;;4.30;99.90;;;;;;5059533;28;20094;-78
2022/11/21 13:02:49;;;;;;;0.10;0.10;;;4.30;99.90;;;;;;5059802;28;20059;-80
2022/11/21 13:05:30;;;;;;;0.10;0.08;;;4.30;99.90;;;;;;4998706;28;20486;-79
2022/11/21 13:08:12;;;;;;;0.90;0.50;;;4.20;99.90;;;;;;5002660;28;20056;-79
2022/11/21 13:10:44;;;;;;;0.10;0.10;;;4.30;99.90;;;;;;5019017;28;20049;-79
2022/11/21 13:13:28;;;;;;;0.00;0.00;;;4.30;99.90;;;;;;5018540;28;20506;-80
2022/11/21 13:16:06;;;;;;;0.30;0.30;;;4.30;99.90;;;;;;5019121;28;20069;-80
2022/11/21 13:18:39;;;;;;;1.88;1.40;;;4.20;99.90;;;;;;5018035;28;20046;-80
2022/11/21 13:21:05;;;;;;;2.88;1.85;;;4.20;99.90;;;;;;5018249;28;20089;-81
2022/11/21 13:23:40;;;;;;;0.85;0.55;;;4.20;99.90;;;;;;5001548;28;20089;-80
2022/11/21 13:26:24;;;;;;;0.82;0.00;;;4.20;99.90;;;;;;5017923;28;20548;-80
2022/11/21 13:29:05;;;;;;;0.03;0.03;;;4.20;99.90;;;;;;5018131;28;20061;-79
2022/11/21 13:31:34;;;;;;;3.63;0.55;;;4.10;99.90;;;;;;5017963;28;20608;-78
2022/11/21 13:34:02;;;;;;;0.90;0.63;;;4.20;99.90;;;;;;5018233;28;20049;-79
2022/11/21 13:36:27;;;;;;;2.30;1.13;;;4.20;99.90;;;;;;5001419;28;20072;-79
2022/11/21 13:38:53;;;;;;;6.28;1.42;;;4.20;99.90;;;;;;5017335;28;20038;-79
2022/11/21 13:44:33;;;;;;;0.22;0.22;;;4.30;99.90;;;;;;5095702;28;20147;-78
2022/11/21 13:47:18;;;;;;;1.40;0.65;;;4.30;99.90;;;;;;5078609;28;20048;-79